Time;durP1;ratioP1;P1;durP2;ratioP2;P2;SDS_P1;SDS_P2;PMS_P1;PMS_P2;Temp;Humidity;BMP_temperature;BMP_pressure;BME280_temperature;BME280_humidity;BME280_pressure;Samples;Min_cycle;Max_cycle;Signal;HPM_P1;HPM_P2
2023/09/07 00:01:44;;;;;;;2.35;1.70;;;;;;;8.44;82.62;99580.97;4859984;29;20045;-55
2023/09/07 00:04:10;;;;;;;5.20;2.95;;;;;;;8.42;83.11;99573.28;4860320;29;20564;-60
2023/09/07 00:06:36;;;;;;;11.00;8.32;;;;;;;8.37;82.48;99568.59;4861050;29;20045;-57
2023/09/07 00:09:05;;;;;;;16.33;10.30;;;;;;;8.41;82.85;99577.75;4860996;29;20082;-57
2023/09/07 00:11:32;;;;;;;13.70;8.50;;;;;;;8.44;83.30;99575.69;4859863;29;20045;-57
2023/09/07 00:13:59;;;;;;;10.90;6.95;;;;;;;8.45;83.15;99588.69;4846040;29;20053;-56
2023/09/07 00:16:25;;;;;;;8.45;6.15;;;;;;;8.45;82.87;99588.69;4863029;29;20065;-58
2023/09/07 00:18:51;;;;;;;6.43;4.93;;;;;;;8.43;84.10;99588.09;4861749;29;20049;-55
2023/09/07 00:21:16;;;;;;;8.93;6.70;;;;;;;8.41;83.68;99590.13;4861083;29;20041;-57
2023/09/07 00:23:42;;;;;;;4.95;3.65;;;;;;;8.39;83.83;99584.28;4861406;29;20069;-57
2023/09/07 00:26:08;;;;;;;4.75;3.92;;;;;;;8.40;84.53;99594.63;4860658;29;20065;-56
2023/09/07 00:28:34;;;;;;;10.93;6.63;;;;;;;8.39;84.31;99590.38;4859714;29;20416;-57
2023/09/07 00:30:59;;;;;;;13.55;10.38;;;;;;;8.38;84.56;99590.53;4861037;29;20056;-60
2023/09/07 00:33:25;;;;;;;12.90;8.38;;;;;;;8.38;84.44;99585.25;4859385;29;20064;-59
2023/09/07 00:35:51;;;;;;;7.82;5.75;;;;;;;8.39;85.38;99584.28;4860923;29;20045;-58
2023/09/07 00:38:16;;;;;;;14.77;8.40;;;;;;;8.39;85.26;99597.50;4860851;29;20049;-58
2023/09/07 00:40:45;;;;;;;8.95;7.47;;;;;;;8.38;85.95;99594.03;4860702;29;20055;-59
2023/09/07 00:43:11;;;;;;;11.77;8.13;;;;;;;8.36;85.74;99598.69;4860795;29;20049;-57
2023/09/07 00:45:37;;;;;;;7.22;4.53;;;;;;;8.37;86.03;99602.13;4860311;29;20057;-56
2023/09/07 00:48:04;;;;;;;7.93;5.38;;;;;;;8.36;86.67;99605.81;4859171;29;20102;-57
2023/09/07 00:50:30;;;;;;;6.18;4.18;;;;;;;8.36;86.79;99619.03;4860758;29;20595;-57
2023/09/07 00:52:56;;;;;;;6.70;5.10;;;;;;;8.34;86.86;99626.34;4859176;29;20163;-58
2023/09/07 00:55:22;;;;;;;5.25;2.40;;;;;;;8.31;87.20;99624.13;4859024;29;20114;-58
2023/09/07 00:57:49;;;;;;;2.90;2.15;;;;;;;8.27;87.98;99628.25;4843939;29;20049;-56
2023/09/07 01:00:15;;;;;;;3.33;2.22;;;;;;;8.26;87.76;99627.41;4859035;29;20058;-59
2023/09/07 01:02:42;;;;;;;3.75;2.30;;;;;;;8.24;88.33;99626.03;4843721;29;20045;-56
2023/09/07 01:05:09;;;;;;;5.57;3.35;;;;;;;8.19;87.88;99632.75;4858113;29;20066;-56
2023/09/07 01:07:38;;;;;;;3.95;1.80;;;;;;;8.18;88.32;99630.34;4859948;29;20060;-57
2023/09/07 01:10:03;;;;;;;2.13;1.92;;;;;;;8.12;88.61;99632.03;4858822;29;20042;-58
2023/09/07 01:12:30;;;;;;;5.53;2.03;;;;;;;8.10;89.03;99635.91;4859002;29;20434;-56
2023/09/07 01:14:56;;;;;;;4.22;1.80;;;;;;;8.07;89.51;99634.47;4859809;29;20050;-56
2023/09/07 01:17:22;;;;;;;2.83;1.67;;;;;;;8.05;90.18;99630.44;4858691;29;20049;-57
2023/09/07 01:19:49;;;;;;;3.20;1.63;;;;;;;8.05;90.07;99630.44;4858651;29;20076;-57
2023/09/07 01:22:17;;;;;;;3.63;1.60;;;;;;;8.04;90.70;99642.84;4857918;29;20045;-56
2023/09/07 01:24:44;;;;;;;6.40;3.60;;;;;;;8.03;90.47;99640.41;4860056;29;20100;-58
2023/09/07 01:27:10;;;;;;;4.43;2.20;;;;;;;8.01;90.80;99631.91;4858239;29;20104;-56
2023/09/07 01:29:37;;;;;;;5.38;3.42;;;;;;;8.01;90.67;99637.19;4858402;29;20076;-59
2023/09/07 01:32:04;;;;;;;11.80;8.15;;;;;;;8.00;91.24;99628.47;4858433;29;20531;-55
2023/09/07 01:34:30;;;;;;;17.25;11.95;;;;;;;8.01;91.50;99637.19;4859883;29;20113;-58
2023/09/07 01:36:55;;;;;;;7.50;4.00;;;;;;;7.98;91.62;99638.41;4858419;29;20532;-56
2023/09/07 01:39:22;;;;;;;4.63;3.75;;;;;;;7.96;91.55;99649.16;4858198;29;20050;-61
2023/09/07 01:41:48;;;;;;;3.95;1.83;;;;;;;7.93;91.78;99636.41;4842844;29;20076;-57
2023/09/07 01:44:14;;;;;;;2.42;1.52;;;;;;;7.87;91.76;99653.09;4858256;29;20520;-59
2023/09/07 01:46:40;;;;;;;1.98;1.42;;;;;;;7.94;92.00;99658.31;4842699;29;20049;-58
2023/09/07 01:49:05;;;;;;;1.63;1.40;;;;;;;7.99;91.99;99655.88;4858100;29;20046;-59
2023/09/07 01:51:32;;;;;;;2.28;1.50;;;;;;;8.12;91.58;99655.78;4858180;29;20077;-54
2023/09/07 01:53:57;;;;;;;3.25;1.50;;;;;;;8.21;91.71;99664.25;4859830;29;20108;-57
2023/09/07 01:56:23;;;;;;;3.17;1.80;;;;;;;8.31;90.39;99672.47;4858422;29;20046;-59
2023/09/07 01:58:49;;;;;;;2.38;1.58;;;;;;;8.39;90.30;99674.91;4858199;29;20088;-57
2023/09/07 02:01:26;;;;;;;2.47;1.60;;;;;;;8.48;89.88;99664.88;4859258;29;20060;-59
2023/09/07 02:03:52;;;;;;;2.80;1.73;;;;;;;8.55;89.90;99676.16;4858977;29;20110;-57
2023/09/07 02:06:18;;;;;;;1.40;1.30;;;;;;;8.56;89.53;99679.63;4859252;29;20595;-56
2023/09/07 02:08:44;;;;;;;3.88;1.80;;;;;;;8.63;89.88;99680.38;4858086;29;20045;-57
2023/09/07 02:11:10;;;;;;;4.30;1.60;;;;;;;8.64;89.13;99674.88;4858028;29;20061;-59
2023/09/07 02:13:36;;;;;;;2.17;1.60;;;;;;;8.66;89.12;99682.59;4859530;29;20524;-52
2023/09/07 02:16:05;;;;;;;1.65;1.30;;;;;;;8.66;89.22;99679.94;4833218;29;20416;-57
2023/09/07 02:18:32;;;;;;;2.53;1.40;;;;;;;8.69;89.05;99678.72;4857854;29;20041;-58
2023/09/07 02:21:18;;;;;;;1.63;1.20;;;;;;;8.67;88.73;99680.75;4858598;29;20057;-57
2023/09/07 02:23:44;;;;;;;2.50;1.23;;;;;;;8.65;89.28;99683.63;4859342;29;20515;-58
2023/09/07 02:26:09;;;;;;;3.13;1.38;;;;;;;8.56;89.42;99680.44;4857634;29;20065;-57
2023/09/07 02:28:35;;;;;;;3.08;1.52;;;;;;;8.51;89.69;99693.50;4857888;29;20149;-57
2023/09/07 02:31:05;;;;;;;1.58;1.17;;;;;;;8.44;89.51;99698.00;4857953;29;20053;-59
2023/09/07 02:33:31;;;;;;;;;;;;;;;8.47;90.01;99694.13;4842906;29;20579;-57
2023/09/07 02:35:58;;;;;;;2.42;1.08;;;;;;;8.39;89.65;99698.66;4861284;29;20011;-59
2023/09/07 02:38:24;;;;;;;2.20;1.33;;;;;;;8.44;90.32;99697.19;4846409;29;20340;-57
2023/09/07 02:40:50;;;;;;;2.03;1.20;;;;;;;8.37;89.90;99686.66;4861448;29;20190;-59
2023/09/07 02:43:16;;;;;;;2.33;1.23;;;;;;;8.31;90.50;99696.25;4861538;29;20049;-56
2023/09/07 02:45:41;;;;;;;2.15;1.23;;;;;;;8.27;89.80;99700.38;4861234;29;20084;-59
2023/09/07 02:48:07;;;;;;;2.72;1.48;;;;;;;8.20;90.86;99699.56;4861490;29;20548;-57
2023/09/07 02:50:35;;;;;;;1.27;1.17;;;;;;;8.20;90.78;99700.38;4861218;29;20049;-56
2023/09/07 02:53:01;;;;;;;3.53;1.30;;;;;;;8.20;90.86;99696.94;4846035;29;20136;-57
2023/09/07 02:55:28;;;;;;;2.53;1.00;;;;;;;8.16;90.35;99698.41;4861217;29;20088;-58
2023/09/07 02:57:55;;;;;;;4.15;1.52;;;;;;;8.11;90.57;99708.78;4861987;29;20449;-54
2023/09/07 03:00:22;;;;;;;3.35;1.20;;;;;;;8.07;90.39;99704.97;4864328;29;20049;-52
2023/09/07 03:02:48;;;;;;;1.70;1.10;;;;;;;8.06;91.11;99704.16;4861502;29;20053;-55
2023/09/07 03:05:17;;;;;;;2.58;1.00;;;;;;;8.17;91.17;99700.81;4862027;29;20077;-56
2023/09/07 03:07:45;;;;;;;;;;;;;;;8.31;90.14;99706.81;4861869;29;20057;-56
2023/09/07 03:10:11;;;;;;;2.40;1.70;;;;;;;8.44;89.21;99708.56;4861464;29;19986;-55
2023/09/07 03:12:38;;;;;;;1.92;1.30;;;;;;;8.53;87.87;99703.81;4861308;29;20054;-57
2023/09/07 03:15:05;;;;;;;2.13;1.30;;;;;;;8.66;87.14;99713.50;4862216;29;20057;-54
2023/09/07 03:17:31;;;;;;;1.15;1.10;;;;;;;8.79;86.37;99716.81;4860981;29;20069;-56
2023/09/07 03:19:57;;;;;;;1.75;1.50;;;;;;;8.88;85.36;99717.34;4862261;29;20144;-58
2023/09/07 03:22:23;;;;;;;4.22;1.60;;;;;;;9.00;84.64;99709.50;4845056;29;20050;-56
2023/09/07 03:24:50;;;;;;;4.55;2.70;;;;;;;9.16;83.55;99721.34;4862186;29;20452;-58
2023/09/07 03:27:17;;;;;;;4.60;2.70;;;;;;;9.26;82.97;99716.34;4861656;29;20065;-56
2023/09/07 03:29:46;;;;;;;8.00;6.32;;;;;;;9.41;82.14;99719.47;4865138;29;20133;-58
2023/09/07 03:32:12;;;;;;;10.25;7.43;;;;;;;9.58;80.75;99724.13;4860607;29;20140;-53
2023/09/07 03:34:38;;;;;;;11.18;9.90;;;;;;;9.69;80.63;99726.84;4861176;29;20132;-58
2023/09/07 03:37:06;;;;;;;13.35;11.20;;;;;;;9.87;79.55;99726.00;4860352;29;20539;-56
2023/09/07 03:39:32;;;;;;;9.85;6.63;;;;;;;10.01;78.47;99730.09;4860329;29;20062;-57
2023/09/07 03:41:59;;;;;;;8.90;6.65;;;;;;;10.18;77.50;99740.84;4860301;29;20056;-58
2023/09/07 03:44:25;;;;;;;10.45;8.40;;;;;;;10.38;76.90;99748.53;4860387;29;20041;-58
2023/09/07 03:46:51;;;;;;;6.28;3.47;;;;;;;10.44;76.60;99747.63;4858946;29;20470;-56
2023/09/07 03:49:16;;;;;;;6.72;4.43;;;;;;;10.65;75.72;99743.63;4859861;29;20106;-58
2023/09/07 03:51:42;;;;;;;6.90;6.03;;;;;;;10.77;74.90;99738.34;4859705;29;20045;-56
2023/09/07 03:54:08;;;;;;;6.60;3.90;;;;;;;10.94;73.97;99751.69;4860078;29;20465;-60
2023/09/07 03:56:33;;;;;;;8.05;2.83;;;;;;;11.05;73.29;99761.50;4861389;29;20041;-58
2023/09/07 03:59:00;;;;;;;4.40;3.00;;;;;;;11.06;72.39;99763.13;4844824;29;20048;-57
2023/09/07 04:01:25;;;;;;;6.72;4.00;;;;;;;11.16;72.45;99759.09;4861526;29;20049;-59
2023/09/07 04:03:51;;;;;;;7.13;5.45;;;;;;;11.27;71.85;99764.41;4861495;29;20049;-55
2023/09/07 04:06:17;;;;;;;7.70;4.88;;;;;;;11.43;71.32;99757.56;4861193;29;20150;-56
2023/09/07 04:08:42;;;;;;;6.75;4.55;;;;;;;11.53;70.62;99768.41;4861492;29;20060;-55
2023/09/07 04:11:08;;;;;;;7.18;5.25;;;;;;;11.69;70.82;99769.50;4844446;29;20049;-58
2023/09/07 04:13:35;;;;;;;4.07;3.13;;;;;;;11.66;69.62;99769.97;4861196;29;20046;-57
2023/09/07 04:16:01;;;;;;;6.68;4.97;;;;;;;11.84;69.54;99769.00;4859576;29;20045;-57
2023/09/07 04:18:27;;;;;;;8.68;2.80;;;;;;;11.64;69.79;99792.50;4843734;29;20052;-58
2023/09/07 04:20:52;;;;;;;2.90;1.60;;;;;;;11.53;69.98;99784.31;4859443;29;20109;-58
2023/09/07 04:23:18;;;;;;;3.08;2.72;;;;;;;11.53;70.08;99786.16;4844246;29;20140;-58
2023/09/07 04:25:43;;;;;;;6.97;5.90;;;;;;;11.62;69.86;99789.25;4859164;29;20048;-58
2023/09/07 04:28:11;;;;;;;4.35;2.80;;;;;;;11.47;69.71;99769.34;4859399;29;20053;-56
2023/09/07 04:30:41;;;;;;;1.95;1.35;;;;;;;11.58;69.69;99799.53;4860851;29;20052;-59
2023/09/07 04:33:07;;;;;;;3.75;1.60;;;;;;;11.44;70.11;99795.53;4860918;29;20533;-54
2023/09/07 04:35:34;;;;;;;4.50;1.75;;;;;;;11.39;70.65;99796.22;4859303;29;20102;-56
2023/09/07 04:38:00;;;;;;;3.05;1.77;;;;;;;11.38;70.60;99797.25;4860494;29;20053;-59
2023/09/07 04:40:26;;;;;;;2.22;1.73;;;;;;;11.35;70.54;99797.72;4860478;29;20085;-58
2023/09/07 04:42:51;;;;;;;2.92;1.80;;;;;;;11.30;70.37;99802.94;4860330;29;20051;-59
2023/09/07 04:45:17;;;;;;;2.40;1.40;;;;;;;11.19;71.08;99801.88;4859536;29;20042;-57
2023/09/07 04:47:43;;;;;;;2.25;1.50;;;;;;;11.28;70.65;99800.50;4859077;29;20057;-54
2023/09/07 04:50:10;;;;;;;1.63;1.15;;;;;;;11.26;71.33;99807.88;4858446;29;20041;-60
2023/09/07 04:52:36;;;;;;;2.55;2.10;;;;;;;11.28;71.54;99811.13;4858988;29;20500;-57
2023/09/07 04:55:02;;;;;;;4.88;1.50;;;;;;;11.22;71.44;99808.59;4860208;29;20057;-59
2023/09/07 04:57:30;;;;;;;1.17;0.88;;;;;;;11.12;72.25;99804.66;4858386;29;20105;-58
2023/09/07 04:59:56;;;;;;;1.80;1.08;;;;;;;11.02;72.40;99812.38;4858737;29;20061;-59
2023/09/07 05:02:22;;;;;;;1.88;1.13;;;;;;;11.11;72.55;99812.84;4858539;29;20054;-59
2023/09/07 05:04:48;;;;;;;1.50;0.90;;;;;;;11.06;71.88;99823.31;4842436;29;20104;-57
2023/09/07 05:07:14;;;;;;;1.25;0.90;;;;;;;11.03;71.67;99829.09;4858427;29;20054;-55
2023/09/07 05:09:40;;;;;;;1.20;1.00;;;;;;;11.02;72.64;99824.84;4859661;29;20071;-58
2023/09/07 05:12:06;;;;;;;1.70;0.98;;;;;;;11.23;72.17;99812.84;4842913;29;20136;-58
2023/09/07 05:14:31;;;;;;;1.10;1.00;;;;;;;11.21;71.92;99818.41;4859958;29;20392;-59
2023/09/07 05:16:57;;;;;;;1.20;1.10;;;;;;;11.04;72.13;99820.13;4858771;29;20418;-56
2023/09/07 05:19:23;;;;;;;1.00;0.90;;;;;;;11.00;72.98;99816.28;4828343;29;20041;-59
2023/09/07 05:21:49;;;;;;;3.47;1.45;;;;;;;10.97;73.00;99816.75;4858258;29;20146;-55
2023/09/07 05:24:15;;;;;;;2.60;1.45;;;;;;;10.96;72.69;99817.78;4842380;29;20056;-59
2023/09/07 05:26:44;;;;;;;1.00;0.90;;;;;;;10.94;72.47;99811.91;4859391;29;20076;-57
2023/09/07 05:29:11;;;;;;;1.63;1.30;;;;;;;11.01;72.82;99823.22;4859571;29;20136;-57
2023/09/07 05:31:37;;;;;;;1.40;0.90;;;;;;;11.05;72.25;99827.81;4842952;29;20049;-58
2023/09/07 05:34:07;;;;;;;1.67;1.00;;;;;;;11.31;72.23;99831.09;4842830;29;20046;-55
2023/09/07 05:36:34;;;;;;;2.78;1.13;;;;;;;11.63;71.43;99826.22;4827717;29;20048;-55
2023/09/07 05:39:01;;;;;;;1.15;1.15;;;;;;;11.87;69.55;99826.19;4858177;29;20045;-56
2023/09/07 05:41:27;;;;;;;4.43;1.20;;;;;;;11.78;69.48;99823.06;4858198;29;20042;-56
2023/09/07 05:43:53;;;;;;;3.28;1.33;;;;;;;11.76;69.86;99819.81;4872917;29;20076;-57
2023/09/07 05:46:19;;;;;;;2.83;1.83;;;;;;;11.78;69.66;99825.72;4858089;29;20046;-54
2023/09/07 05:48:45;;;;;;;2.92;1.50;;;;;;;11.99;68.66;99837.59;4849813;29;20508;-58
2023/09/07 05:51:10;;;;;;;2.38;1.10;;;;;;;11.97;69.17;99835.19;4841031;29;20092;-57
2023/09/07 05:53:36;;;;;;;3.05;1.63;;;;;;;12.08;68.92;99833.50;4858879;29;20038;-55
2023/09/07 05:56:02;;;;;;;6.55;2.47;;;;;;;12.26;68.56;99840.50;4859381;29;20045;-57
2023/09/07 05:58:28;;;;;;;2.97;2.50;;;;;;;12.26;68.02;99848.47;4857851;29;20078;-55
2023/09/07 06:00:53;;;;;;;3.83;1.90;;;;;;;12.41;67.38;99839.97;4839187;29;20087;-55
2023/09/07 06:03:19;;;;;;;2.85;2.40;;;;;;;12.40;67.05;99851.66;4857022;29;20057;-54
2023/09/07 06:05:45;;;;;;;4.43;2.80;;;;;;;12.37;67.70;99846.81;4859184;29;20449;-56
2023/09/07 06:08:11;;;;;;;4.00;2.22;;;;;;;12.37;67.63;99850.28;4857541;29;20053;-54
2023/09/07 06:10:38;;;;;;;3.05;1.70;;;;;;;12.35;67.07;99849.72;4842261;29;20049;-55
2023/09/07 06:13:05;;;;;;;3.25;1.63;;;;;;;12.29;66.74;99850.66;4841557;29;20049;-55
2023/09/07 06:15:31;;;;;;;1.92;1.65;;;;;;;12.16;66.76;99861.59;4857433;29;20136;-56
2023/09/07 06:17:57;;;;;;;2.60;1.40;;;;;;;12.17;66.36;99860.53;4857811;29;20049;-59
2023/09/07 06:20:23;;;;;;;2.17;1.80;;;;;;;12.44;66.42;99858.09;4858361;29;20509;-57
2023/09/07 06:22:49;;;;;;;3.92;1.50;;;;;;;12.55;66.07;99867.91;4857884;29;20049;-56
2023/09/07 06:25:15;;;;;;;3.28;1.80;;;;;;;12.55;64.90;99859.91;4857636;29;20128;-58
2023/09/07 06:27:41;;;;;;;5.63;1.60;;;;;;;12.56;65.14;99856.22;4857276;29;20070;-58
2023/09/07 06:30:08;;;;;;;6.30;1.92;;;;;;;12.49;64.65;99861.66;4857636;29;20045;-56
2023/09/07 06:32:35;;;;;;;4.03;2.00;;;;;;;12.43;65.33;99867.94;4857605;29;20540;-57
2023/09/07 06:35:02;;;;;;;1.60;1.33;;;;;;;12.49;65.09;99863.53;4839045;29;21022;-59
2023/09/07 06:37:29;;;;;;;4.95;2.10;;;;;;;12.46;65.20;99854.16;4854581;29;20136;-60
2023/09/07 06:39:56;;;;;;;1.55;1.20;;;;;;;12.46;65.17;99859.50;4868917;29;20389;-56
2023/09/07 06:42:24;;;;;;;1.90;1.70;;;;;;;12.48;65.86;99860.06;4812415;29;20042;-56
2023/09/07 06:45:00;;;;;;;3.60;1.92;;;;;;;12.46;65.32;99861.34;4857266;29;20423;-58
2023/09/07 06:47:26;;;;;;;3.90;1.70;;;;;;;12.46;65.38;99861.34;4857917;29;20140;-56
2023/09/07 06:49:53;;;;;;;4.20;2.83;;;;;;;12.41;65.02;99869.22;4858026;29;20053;-60
2023/09/07 06:52:19;;;;;;;11.05;6.90;;;;;;;12.36;64.87;99875.25;4858880;29;20106;-57
2023/09/07 06:54:45;;;;;;;8.90;5.55;;;;;;;12.32;65.26;99865.31;4857683;29;20041;-61
2023/09/07 06:57:11;;;;;;;4.60;2.22;;;;;;;12.33;64.91;99870.44;4857842;29;20042;-57
2023/09/07 06:59:36;;;;;;;13.27;5.93;;;;;;;12.33;65.21;99862.44;4858056;29;20057;-57
2023/09/07 07:02:04;;;;;;;2.10;1.70;;;;;;;12.40;64.96;99875.59;4857370;29;20053;-60
2023/09/07 07:04:31;;;;;;;1.48;1.20;;;;;;;12.41;63.94;99870.06;4857211;29;20049;-59
2023/09/07 07:06:57;;;;;;;5.25;1.63;;;;;;;12.41;64.77;99875.38;4857100;29;20054;-60
2023/09/07 07:09:22;;;;;;;3.80;1.38;;;;;;;12.45;64.69;99883.66;4841914;29;20059;-60
2023/09/07 07:11:49;;;;;;;2.83;1.60;;;;;;;12.55;64.55;99877.72;4857312;29;20049;-59
2023/09/07 07:14:15;;;;;;;3.88;1.38;;;;;;;12.59;63.56;99876.19;4857067;29;20109;-58
2023/09/07 07:16:40;;;;;;;1.23;1.10;;;;;;;12.64;63.54;99871.78;4857545;29;20436;-58
2023/09/07 07:19:06;;;;;;;4.82;1.50;;;;;;;12.73;63.30;99878.34;4857594;29;20101;-60
2023/09/07 07:21:32;;;;;;;2.80;1.80;;;;;;;12.91;62.58;99881.81;4844672;29;20046;-60
2023/09/07 07:23:58;;;;;;;3.83;2.63;;;;;;;12.99;62.00;99891.25;4859946;29;20483;-58
2023/09/07 07:26:24;;;;;;;4.80;1.40;;;;;;;13.15;61.68;99882.50;4860073;29;20072;-63
2023/09/07 07:28:50;;;;;;;3.83;1.88;;;;;;;13.14;61.04;99879.00;4860234;29;20046;-59
2023/09/07 07:31:16;;;;;;;3.78;1.70;;;;;;;13.17;61.01;99883.03;4861831;29;20412;-61
2023/09/07 07:33:44;;;;;;;3.90;1.58;;;;;;;13.26;61.13;99875.50;4860364;29;20057;-58
2023/09/07 07:36:10;;;;;;;1.77;1.50;;;;;;;13.49;60.11;99885.16;4860212;29;20052;-57
2023/09/07 07:38:36;;;;;;;2.25;1.40;;;;;;;13.48;58.61;99887.03;4844821;29;20500;-58
2023/09/07 07:41:03;;;;;;;1.42;1.33;;;;;;;13.54;58.43;99878.06;4859959;29;20061;-57
2023/09/07 07:43:29;;;;;;;1.50;1.10;;;;;;;13.68;57.80;99875.84;4842023;29;20143;-59
2023/09/07 07:45:55;;;;;;;1.38;1.20;;;;;;;13.80;57.63;99865.09;4841494;29;20038;-60
2023/09/07 07:48:22;;;;;;;2.65;1.40;;;;;;;13.90;57.76;99869.72;4845626;29;20455;-58
2023/09/07 07:50:48;;;;;;;2.22;1.23;;;;;;;13.88;57.19;99864.63;4860333;29;20045;-59
2023/09/07 07:53:15;;;;;;;2.17;1.10;;;;;;;13.71;56.37;99858.56;4859554;29;20296;-58
2023/09/07 07:55:42;;;;;;;1.17;0.90;;;;;;;13.73;56.33;99862.56;4858699;29;20045;-55
2023/09/07 07:58:11;;;;;;;3.85;1.00;;;;;;;13.79;56.57;99868.78;4844792;29;20050;-58
2023/09/07 08:00:40;;;;;;;3.20;1.08;;;;;;;13.98;56.05;99866.66;4849337;29;20054;-57
2023/09/07 08:03:07;;;;;;;1.98;1.13;;;;;;;14.24;55.01;99865.09;4840727;29;20508;-58
2023/09/07 08:05:34;;;;;;;1.45;1.00;;;;;;;14.27;55.66;99864.59;4844117;29;20634;-55
2023/09/07 08:08:01;;;;;;;3.30;0.95;;;;;;;14.34;55.44;99872.38;4825997;29;20057;-57
2023/09/07 08:10:27;;;;;;;1.33;1.17;;;;;;;14.39;54.70;99867.13;4811102;29;20513;-59
2023/09/07 08:12:54;;;;;;;1.10;0.90;;;;;;;14.34;52.57;99870.53;4828898;29;20114;-59
2023/09/07 08:15:22;;;;;;;4.57;1.30;;;;;;;14.30;54.09;99866.75;4858603;29;20568;-59
2023/09/07 08:17:48;;;;;;;1.42;0.70;;;;;;;14.45;52.92;99874.91;4844516;29;20477;-56
2023/09/07 08:20:15;;;;;;;1.02;0.77;;;;;;;14.30;51.99;99861.41;4858683;29;20045;-58
2023/09/07 08:22:42;;;;;;;2.10;0.68;;;;;;;14.44;51.42;99869.81;4859572;29;20056;-56
2023/09/07 08:25:10;;;;;;;3.13;0.95;;;;;;;14.42;50.68;99869.28;4860352;29;20064;-58
2023/09/07 08:27:35;;;;;;;1.80;0.80;;;;;;;14.40;50.60;99888.19;4859144;29;20065;-58
2023/09/07 08:30:01;;;;;;;2.35;0.88;;;;;;;14.42;50.43;99867.41;4852418;29;20089;-60
2023/09/07 08:32:29;;;;;;;0.80;0.80;;;;;;;14.38;50.01;99866.28;4841322;29;20073;-58
2023/09/07 08:34:57;;;;;;;0.63;0.60;;;;;;;14.39;49.66;99869.78;4839413;29;20089;-57
2023/09/07 08:37:24;;;;;;;1.13;0.70;;;;;;;14.65;49.59;99870.88;4859629;29;20128;-57
2023/09/07 08:39:50;;;;;;;3.65;1.02;;;;;;;14.72;50.09;99882.94;4859065;29;20097;-57
2023/09/07 08:42:15;;;;;;;1.48;0.90;;;;;;;14.89;49.53;99876.69;4861005;29;20045;-56
2023/09/07 08:44:42;;;;;;;1.42;0.73;;;;;;;14.84;48.56;99872.09;4860345;29;20052;-59
2023/09/07 08:47:08;;;;;;;1.00;0.90;;;;;;;14.83;48.75;99878.53;4859347;29;20073;-62
2023/09/07 08:49:34;;;;;;;1.85;0.73;;;;;;;14.92;49.65;99868.19;4860123;29;20042;-60
2023/09/07 08:52:01;;;;;;;1.38;0.63;;;;;;;14.87;48.44;99876.94;4860759;29;20133;-56
2023/09/07 08:54:28;;;;;;;2.05;0.70;;;;;;;14.99;47.95;99874.91;4861785;29;20402;-59
2023/09/07 08:56:53;;;;;;;0.90;0.70;;;;;;;15.02;45.85;99870.94;4861365;29;20092;-55
2023/09/07 08:59:19;;;;;;;1.63;0.52;;;;;;;15.06;46.66;99890.72;4861109;29;20042;-60
2023/09/07 09:01:45;;;;;;;1.88;0.90;;;;;;;15.02;46.65;99878.94;4860890;29;20113;-60
2023/09/07 09:04:10;;;;;;;0.70;0.70;;;;;;;15.01;48.50;99871.19;4852765;29;20042;-61
2023/09/07 09:06:36;;;;;;;2.25;1.23;;;;;;;15.02;48.38;99870.13;4841948;29;20411;-59
2023/09/07 09:09:05;;;;;;;0.85;0.70;;;;;;;15.14;47.43;99868.88;4842163;29;20068;-59
2023/09/07 09:11:30;;;;;;;1.20;0.70;;;;;;;15.26;46.33;99881.25;4841952;29;20060;-59
2023/09/07 09:13:56;;;;;;;1.40;0.70;;;;;;;15.20;47.32;99891.91;4842019;29;20148;-56
2023/09/07 09:16:21;;;;;;;1.77;0.85;;;;;;;15.17;47.41;99872.91;4841311;29;20037;-60
2023/09/07 09:18:52;;;;;;;1.63;1.20;;;;;;;15.33;47.18;99882.66;4841504;29;20045;-60
2023/09/07 09:21:18;;;;;;;;;;;;;;;15.41;45.94;99878.69;4840382;29;20042;-59
2023/09/07 09:23:43;;;;;;;2.83;0.90;;;;;;;15.58;45.62;99871.31;4845868;29;19928;-59
2023/09/07 09:26:09;;;;;;;1.42;1.02;;;;;;;15.66;44.81;99894.88;4857976;29;20053;-57
2023/09/07 09:28:35;;;;;;;2.28;0.70;;;;;;;15.46;44.00;99868.03;4859884;29;20045;-58
2023/09/07 09:31:02;;;;;;;0.70;0.70;;;;;;;15.48;44.02;99873.13;4848431;29;20072;-60
2023/09/07 09:33:31;;;;;;;0.70;0.70;;;;;;;15.56;44.10;99872.63;4844159;29;20106;-59
2023/09/07 09:35:57;;;;;;;1.33;0.70;;;;;;;15.72;45.26;99862.88;4857844;29;20527;-60
2023/09/07 09:38:23;;;;;;;1.10;0.90;;;;;;;15.73;45.03;99854.59;4859503;29;20137;-59
2023/09/07 09:40:50;;;;;;;5.22;1.23;;;;;;;15.61;42.98;99868.13;4858513;29;20060;-60
2023/09/07 09:43:15;;;;;;;4.07;1.10;;;;;;;15.54;44.14;99864.09;4859332;29;20049;-59
2023/09/07 09:45:41;;;;;;;1.38;1.00;;;;;;;15.56;43.65;99865.44;4858422;29;20500;-61
2023/09/07 09:48:07;;;;;;;0.82;0.80;;;;;;;15.39;44.78;99876.28;4859076;29;20049;-58
2023/09/07 09:50:39;;;;;;;1.05;0.95;;;;;;;15.28;44.63;99901.31;4859185;29;20060;-60
2023/09/07 09:53:08;;;;;;;1.73;0.80;;;;;;;15.03;45.25;99875.22;4859368;29;20500;-60
2023/09/07 09:55:34;;;;;;;2.03;0.82;;;;;;;14.95;45.58;99865.81;4842647;29;20128;-59
2023/09/07 09:57:59;;;;;;;0.80;0.80;;;;;;;15.00;45.94;99867.72;4859021;29;20053;-59
2023/09/07 10:00:25;;;;;;;2.83;1.20;;;;;;;15.14;45.49;99863.53;4858923;29;20053;-59
2023/09/07 10:02:59;;;;;;;4.93;1.25;;;;;;;15.27;43.11;99853.50;4859051;29;20046;-59
2023/09/07 10:05:25;;;;;;;2.67;0.90;;;;;;;15.28;43.15;99863.91;4841259;29;20049;-58
2023/09/07 10:07:51;;;;;;;0.82;0.82;;;;;;;15.41;43.44;99876.00;4856775;29;20539;-58
2023/09/07 10:10:19;;;;;;;1.00;0.88;;;;;;;15.31;43.62;99863.41;4856488;29;20038;-59
2023/09/07 10:12:53;;;;;;;2.60;1.00;;;;;;;15.20;43.63;99859.84;4858864;29;20070;-58
2023/09/07 10:15:26;;;;;;;1.23;0.73;;;;;;;15.19;44.17;99862.78;4858733;29;20049;-59
2023/09/07 10:18:05;;;;;;;0.80;0.80;;;;;;;15.27;44.96;99850.84;4858155;29;20061;-57
2023/09/07 10:20:55;;;;;;;1.02;0.93;;;;;;;15.49;43.60;99864.06;4840563;29;20049;-61
2023/09/07 10:23:21;;;;;;;1.25;0.95;;;;;;;15.68;43.24;99854.59;4842739;29;20053;-61
2023/09/07 10:25:52;;;;;;;1.33;0.90;;;;;;;15.79;43.83;99839.38;4858914;29;20050;-61
2023/09/07 10:28:25;;;;;;;5.57;0.90;;;;;;;15.86;43.78;99853.34;4858555;29;20081;-60
2023/09/07 10:31:07;;;;;;;1.33;1.10;;;;;;;15.91;43.69;99848.00;4858233;29;20120;-59
2023/09/07 10:33:34;;;;;;;1.23;1.08;;;;;;;15.86;43.93;99864.03;4857660;29;20547;-58
2023/09/07 10:36:37;;;;;;;1.02;0.82;;;;;;;15.85;44.33;99849.88;4856934;29;20073;-58
2023/09/07 10:39:16;;;;;;;1.67;0.80;;;;;;;15.81;44.18;99847.97;4945516;23;20073;-60
2023/09/07 10:41:43;;;;;;;1.48;0.77;;;;;;;15.81;44.28;99846.09;4876067;29;20096;-60
2023/09/07 10:44:13;;;;;;;0.80;0.80;;;;;;;15.85;43.89;99849.88;4875513;29;20045;-60
2023/09/07 10:46:41;;;;;;;2.42;1.10;;;;;;;15.65;43.95;99855.06;4845253;29;20068;-58
2023/09/07 10:49:11;;;;;;;1.40;0.90;;;;;;;15.44;44.44;99843.44;4844843;29;20503;-61
2023/09/07 10:51:44;;;;;;;0.82;0.82;;;;;;;15.32;44.44;99851.66;4877358;29;20051;-56
2023/09/07 10:54:17;;;;;;;1.92;1.00;;;;;;;15.29;44.75;99846.03;4874734;29;20037;-60
2023/09/07 10:56:46;;;;;;;1.10;1.00;;;;;;;15.38;45.20;99856.00;4876155;29;20057;-59
2023/09/07 10:59:13;;;;;;;1.83;0.88;;;;;;;15.37;45.46;99850.88;4876436;29;20049;-58
2023/09/07 11:01:39;;;;;;;0.88;0.88;;;;;;;15.30;45.87;99844.97;4880658;29;20044;-59
2023/09/07 11:04:05;;;;;;;1.00;0.90;;;;;;;15.25;45.66;99855.63;4880541;29;20443;-60
2023/09/07 11:06:30;;;;;;;2.33;1.00;;;;;;;15.12;45.36;99865.69;4880901;29;20041;-61
2023/09/07 11:08:59;;;;;;;1.58;1.00;;;;;;;15.15;44.40;99859.03;4862318;29;20072;-58
2023/09/07 11:11:26;;;;;;;2.75;1.08;;;;;;;15.18;46.04;99853.97;4878522;29;20045;-57
2023/09/07 11:13:52;;;;;;;3.55;1.10;;;;;;;15.28;45.49;99853.22;4846066;29;20053;-60
2023/09/07 11:16:18;;;;;;;2.50;1.00;;;;;;;15.48;45.06;99839.22;4880532;29;20048;-60
2023/09/07 11:18:46;;;;;;;2.13;1.50;;;;;;;15.69;43.71;99842.03;4880484;29;20041;-57
2023/09/07 11:21:11;;;;;;;1.65;0.90;;;;;;;15.69;42.87;99842.81;4863903;29;20049;-56
2023/09/07 11:23:40;;;;;;;1.52;0.82;;;;;;;15.77;42.77;99841.53;4879981;29;20056;-60
2023/09/07 11:26:07;;;;;;;3.78;1.45;;;;;;;15.75;42.09;99836.44;4879298;29;20045;-60
2023/09/07 11:28:34;;;;;;;0.73;0.73;;;;;;;15.76;42.44;99838.03;4863188;29;20048;-58
2023/09/07 11:31:00;;;;;;;2.22;0.90;;;;;;;15.74;43.27;99850.06;4878808;29;20526;-58
2023/09/07 11:33:26;;;;;;;1.58;1.30;;;;;;;15.64;43.34;99840.09;4880313;29;20136;-58
2023/09/07 11:35:54;;;;;;;1.02;0.93;;;;;;;15.47;44.16;99848.31;4880015;29;20486;-60